sensor_id;sensor_type;location;lat;lon;timestamp;P1;durP1;ratioP1;P2;durP2;ratioP2
22603;SDS011;11469;49.024;8.246;2024-02-14T00:00:02;14.05;;;7.80;;
22603;SDS011;11469;49.024;8.246;2024-02-14T00:02:28;18.88;;;7.53;;
22603;SDS011;11469;49.024;8.246;2024-02-14T00:04:54;21.45;;;8.65;;
22603;SDS011;11469;49.024;8.246;2024-02-14T00:07:19;13.55;;;7.00;;
22603;SDS011;11469;49.024;8.246;2024-02-14T00:09:45;14.10;;;7.55;;
22603;SDS011;11469;49.024;8.246;2024-02-14T00:12:11;28.80;;;8.07;;
22603;SDS011;11469;49.024;8.246;2024-02-14T00:14:37;25.83;;;8.40;;
22603;SDS011;11469;49.024;8.246;2024-02-14T00:17:03;14.30;;;8.30;;
22603;SDS011;11469;49.024;8.246;2024-02-14T00:19:29;18.27;;;9.05;;
22603;SDS011;11469;49.024;8.246;2024-02-14T00:21:54;21.10;;;9.02;;
22603;SDS011;11469;49.024;8.246;2024-02-14T00:24:19;23.17;;;9.55;;
22603;SDS011;11469;49.024;8.246;2024-02-14T00:26:45;17.17;;;8.65;;
22603;SDS011;11469;49.024;8.246;2024-02-14T00:29:11;18.30;;;8.82;;
22603;SDS011;11469;49.024;8.246;2024-02-14T00:31:37;22.88;;;8.52;;
22603;SDS011;11469;49.024;8.246;2024-02-14T00:34:02;15.75;;;8.63;;
22603;SDS011;11469;49.024;8.246;2024-02-14T00:36:27;17.27;;;8.45;;
22603;SDS011;11469;49.024;8.246;2024-02-14T00:38:53;20.65;;;8.27;;
22603;SDS011;11469;49.024;8.246;2024-02-14T00:41:18;16.25;;;7.97;;
22603;SDS011;11469;49.024;8.246;2024-02-14T00:43:44;19.20;;;7.95;;
22603;SDS011;11469;49.024;8.246;2024-02-14T00:46:15;16.13;;;7.30;;
22603;SDS011;11469;49.024;8.246;2024-02-14T00:48:43;18.73;;;7.57;;
22603;SDS011;11469;49.024;8.246;2024-02-14T00:51:09;14.48;;;7.15;;
22603;SDS011;11469;49.024;8.246;2024-02-14T00:53:35;15.50;;;7.50;;
22603;SDS011;11469;49.024;8.246;2024-02-14T00:56:00;18.83;;;7.45;;
22603;SDS011;11469;49.024;8.246;2024-02-14T00:58:26;18.08;;;7.97;;
22603;SDS011;11469;49.024;8.246;2024-02-14T01:00:51;16.48;;;7.80;;
22603;SDS011;11469;49.024;8.246;2024-02-14T01:03:16;25.67;;;8.30;;
22603;SDS011;11469;49.024;8.246;2024-02-14T01:05:42;14.07;;;7.90;;
22603;SDS011;11469;49.024;8.246;2024-02-14T01:08:08;18.08;;;7.82;;
22603;SDS011;11469;49.024;8.246;2024-02-14T01:10:33;18.17;;;8.82;;
22603;SDS011;11469;49.024;8.246;2024-02-14T01:12:58;14.05;;;7.22;;
22603;SDS011;11469;49.024;8.246;2024-02-14T01:15:24;18.25;;;8.60;;
22603;SDS011;11469;49.024;8.246;2024-02-14T01:17:49;17.55;;;7.53;;
22603;SDS011;11469;49.024;8.246;2024-02-14T01:20:15;19.27;;;8.30;;
22603;SDS011;11469;49.024;8.246;2024-02-14T01:22:40;16.15;;;7.57;;
22603;SDS011;11469;49.024;8.246;2024-02-14T01:25:06;21.08;;;8.18;;
22603;SDS011;11469;49.024;8.246;2024-02-14T01:27:32;18.95;;;7.95;;
22603;SDS011;11469;49.024;8.246;2024-02-14T01:29:57;18.88;;;8.43;;
22603;SDS011;11469;49.024;8.246;2024-02-14T01:32:23;17.23;;;8.30;;
22603;SDS011;11469;49.024;8.246;2024-02-14T01:34:48;14.10;;;7.40;;
22603;SDS011;11469;49.024;8.246;2024-02-14T01:37:14;20.23;;;8.60;;
22603;SDS011;11469;49.024;8.246;2024-02-14T01:39:39;19.00;;;7.82;;
22603;SDS011;11469;49.024;8.246;2024-02-14T01:42:05;16.38;;;7.22;;
22603;SDS011;11469;49.024;8.246;2024-02-14T01:44:32;16.63;;;8.35;;
22603;SDS011;11469;49.024;8.246;2024-02-14T01:46:58;15.93;;;7.03;;
22603;SDS011;11469;49.024;8.246;2024-02-14T01:49:24;24.10;;;8.30;;
22603;SDS011;11469;49.024;8.246;2024-02-14T01:51:52;20.33;;;7.82;;
22603;SDS011;11469;49.024;8.246;2024-02-14T01:54:18;17.25;;;7.20;;
22603;SDS011;11469;49.024;8.246;2024-02-14T01:56:44;13.75;;;6.90;;
22603;SDS011;11469;49.024;8.246;2024-02-14T01:59:10;16.98;;;6.85;;
22603;SDS011;11469;49.024;8.246;2024-02-14T02:01:35;13.75;;;6.57;;
22603;SDS011;11469;49.024;8.246;2024-02-14T02:04:02;12.65;;;6.28;;
22603;SDS011;11469;49.024;8.246;2024-02-14T02:06:27;13.60;;;5.93;;
22603;SDS011;11469;49.024;8.246;2024-02-14T02:08:53;14.63;;;5.75;;
22603;SDS011;11469;49.024;8.246;2024-02-14T02:11:19;15.18;;;5.68;;
22603;SDS011;11469;49.024;8.246;2024-02-14T02:13:45;14.02;;;5.05;;
22603;SDS011;11469;49.024;8.246;2024-02-14T02:16:10;16.40;;;5.45;;
22603;SDS011;11469;49.024;8.246;2024-02-14T02:18:37;12.15;;;4.90;;
22603;SDS011;11469;49.024;8.246;2024-02-14T02:21:03;12.25;;;4.80;;
22603;SDS011;11469;49.024;8.246;2024-02-14T02:23:32;9.90;;;4.82;;
22603;SDS011;11469;49.024;8.246;2024-02-14T02:26:01;13.63;;;5.00;;
22603;SDS011;11469;49.024;8.246;2024-02-14T02:28:27;12.30;;;3.83;;
22603;SDS011;11469;49.024;8.246;2024-02-14T02:30:52;13.90;;;4.53;;
22603;SDS011;11469;49.024;8.246;2024-02-14T02:33:18;9.15;;;4.15;;
22603;SDS011;11469;49.024;8.246;2024-02-14T02:35:44;11.40;;;4.68;;
22603;SDS011;11469;49.024;8.246;2024-02-14T02:38:10;15.00;;;4.03;;
22603;SDS011;11469;49.024;8.246;2024-02-14T02:40:36;11.60;;;4.22;;
22603;SDS011;11469;49.024;8.246;2024-02-14T02:43:02;9.82;;;4.10;;
22603;SDS011;11469;49.024;8.246;2024-02-14T02:45:28;10.02;;;4.10;;
22603;SDS011;11469;49.024;8.246;2024-02-14T02:47:53;12.65;;;4.57;;
22603;SDS011;11469;49.024;8.246;2024-02-14T02:50:20;9.15;;;4.03;;
22603;SDS011;11469;49.024;8.246;2024-02-14T02:52:46;11.85;;;4.18;;
22603;SDS011;11469;49.024;8.246;2024-02-14T02:55:12;10.90;;;4.25;;
22603;SDS011;11469;49.024;8.246;2024-02-14T02:57:38;10.85;;;3.97;;
22603;SDS011;11469;49.024;8.246;2024-02-14T03:00:06;8.98;;;3.88;;
22603;SDS011;11469;49.024;8.246;2024-02-14T03:02:32;14.32;;;3.90;;
22603;SDS011;11469;49.024;8.246;2024-02-14T03:04:59;10.65;;;3.58;;
22603;SDS011;11469;49.024;8.246;2024-02-14T03:07:25;13.82;;;3.90;;
22603;SDS011;11469;49.024;8.246;2024-02-14T03:09:50;7.63;;;3.75;;
22603;SDS011;11469;49.024;8.246;2024-02-14T03:12:17;13.20;;;4.22;;
22603;SDS011;11469;49.024;8.246;2024-02-14T03:14:43;7.85;;;2.97;;
22603;SDS011;11469;49.024;8.246;2024-02-14T03:17:09;9.60;;;3.58;;
22603;SDS011;11469;49.024;8.246;2024-02-14T03:19:35;13.25;;;3.20;;
22603;SDS011;11469;49.024;8.246;2024-02-14T03:22:03;8.68;;;3.05;;
22603;SDS011;11469;49.024;8.246;2024-02-14T03:24:31;11.95;;;3.05;;
22603;SDS011;11469;49.024;8.246;2024-02-14T03:26:56;14.63;;;2.90;;
22603;SDS011;11469;49.024;8.246;2024-02-14T03:29:22;9.43;;;3.25;;
22603;SDS011;11469;49.024;8.246;2024-02-14T03:31:47;12.57;;;3.47;;
22603;SDS011;11469;49.024;8.246;2024-02-14T03:34:13;7.95;;;3.30;;
22603;SDS011;11469;49.024;8.246;2024-02-14T03:36:39;14.55;;;2.85;;
22603;SDS011;11469;49.024;8.246;2024-02-14T03:39:04;7.03;;;2.75;;
22603;SDS011;11469;49.024;8.246;2024-02-14T03:41:31;7.60;;;2.53;;
22603;SDS011;11469;49.024;8.246;2024-02-14T03:43:57;6.65;;;2.65;;
22603;SDS011;11469;49.024;8.246;2024-02-14T03:46:28;10.15;;;2.72;;
22603;SDS011;11469;49.024;8.246;2024-02-14T03:48:54;11.00;;;2.90;;
22603;SDS011;11469;49.024;8.246;2024-02-14T03:51:20;9.32;;;2.30;;
22603;SDS011;11469;49.024;8.246;2024-02-14T03:53:45;9.43;;;2.70;;
22603;SDS011;11469;49.024;8.246;2024-02-14T03:56:11;4.82;;;1.92;;
22603;SDS011;11469;49.024;8.246;2024-02-14T03:58:37;7.57;;;1.90;;
22603;SDS011;11469;49.024;8.246;2024-02-14T04:01:03;7.72;;;1.70;;
22603;SDS011;11469;49.024;8.246;2024-02-14T04:03:29;4.38;;;1.80;;
22603;SDS011;11469;49.024;8.246;2024-02-14T04:05:54;7.57;;;2.50;;
22603;SDS011;11469;49.024;8.246;2024-02-14T04:08:20;8.63;;;1.67;;
22603;SDS011;11469;49.024;8.246;2024-02-14T04:10:45;7.25;;;1.75;;
22603;SDS011;11469;49.024;8.246;2024-02-14T04:13:11;4.45;;;1.48;;
22603;SDS011;11469;49.024;8.246;2024-02-14T04:15:36;10.52;;;2.55;;
22603;SDS011;11469;49.024;8.246;2024-02-14T04:18:02;7.05;;;1.80;;
22603;SDS011;11469;49.024;8.246;2024-02-14T04:20:29;6.72;;;1.85;;
22603;SDS011;11469;49.024;8.246;2024-02-14T04:22:54;7.35;;;1.95;;
22603;SDS011;11469;49.024;8.246;2024-02-14T04:25:20;6.55;;;1.83;;
22603;SDS011;11469;49.024;8.246;2024-02-14T04:27:46;10.07;;;1.77;;
22603;SDS011;11469;49.024;8.246;2024-02-14T04:30:11;4.72;;;1.35;;
22603;SDS011;11469;49.024;8.246;2024-02-14T04:32:37;9.93;;;2.17;;
22603;SDS011;11469;49.024;8.246;2024-02-14T04:35:02;8.75;;;1.67;;
22603;SDS011;11469;49.024;8.246;2024-02-14T04:37:28;6.45;;;1.38;;
22603;SDS011;11469;49.024;8.246;2024-02-14T04:39:54;10.38;;;1.98;;
22603;SDS011;11469;49.024;8.246;2024-02-14T04:42:20;8.85;;;1.73;;
22603;SDS011;11469;49.024;8.246;2024-02-14T04:44:45;15.35;;;2.25;;
22603;SDS011;11469;49.024;8.246;2024-02-14T04:47:11;9.85;;;2.40;;
22603;SDS011;11469;49.024;8.246;2024-02-14T04:49:36;12.82;;;2.15;;
22603;SDS011;11469;49.024;8.246;2024-02-14T04:52:02;7.97;;;1.90;;
22603;SDS011;11469;49.024;8.246;2024-02-14T04:54:27;5.50;;;1.60;;
22603;SDS011;11469;49.024;8.246;2024-02-14T04:56:53;7.68;;;1.90;;
22603;SDS011;11469;49.024;8.246;2024-02-14T04:59:19;6.00;;;2.22;;
22603;SDS011;11469;49.024;8.246;2024-02-14T05:01:44;7.03;;;2.22;;
22603;SDS011;11469;49.024;8.246;2024-02-14T05:04:11;6.78;;;1.92;;
22603;SDS011;11469;49.024;8.246;2024-02-14T05:06:37;5.70;;;1.67;;
22603;SDS011;11469;49.024;8.246;2024-02-14T05:09:03;8.68;;;1.95;;
22603;SDS011;11469;49.024;8.246;2024-02-14T05:11:29;6.75;;;1.80;;
22603;SDS011;11469;49.024;8.246;2024-02-14T05:13:54;8.20;;;1.67;;
22603;SDS011;11469;49.024;8.246;2024-02-14T05:16:20;6.72;;;1.80;;
22603;SDS011;11469;49.024;8.246;2024-02-14T05:18:45;7.47;;;1.67;;
22603;SDS011;11469;49.024;8.246;2024-02-14T05:21:11;8.25;;;1.63;;
22603;SDS011;11469;49.024;8.246;2024-02-14T05:23:37;8.32;;;2.60;;
22603;SDS011;11469;49.024;8.246;2024-02-14T05:26:03;5.65;;;1.60;;
22603;SDS011;11469;49.024;8.246;2024-02-14T05:28:28;6.03;;;1.77;;
22603;SDS011;11469;49.024;8.246;2024-02-14T05:30:54;8.68;;;1.67;;
22603;SDS011;11469;49.024;8.246;2024-02-14T05:33:20;9.20;;;1.80;;
22603;SDS011;11469;49.024;8.246;2024-02-14T05:35:50;5.72;;;1.70;;
22603;SDS011;11469;49.024;8.246;2024-02-14T05:38:16;10.18;;;2.30;;
22603;SDS011;11469;49.024;8.246;2024-02-14T05:40:41;9.35;;;1.42;;
22603;SDS011;11469;49.024;8.246;2024-02-14T05:43:09;7.40;;;1.95;;
22603;SDS011;11469;49.024;8.246;2024-02-14T05:45:35;8.57;;;1.80;;
22603;SDS011;11469;49.024;8.246;2024-02-14T05:48:00;7.78;;;1.88;;
22603;SDS011;11469;49.024;8.246;2024-02-14T05:50:26;15.63;;;2.45;;
22603;SDS011;11469;49.024;8.246;2024-02-14T05:52:51;9.93;;;2.20;;
22603;SDS011;11469;49.024;8.246;2024-02-14T05:55:16;7.82;;;2.22;;
22603;SDS011;11469;49.024;8.246;2024-02-14T05:57:43;7.75;;;3.30;;
22603;SDS011;11469;49.024;8.246;2024-02-14T06:00:08;8.25;;;2.35;;
22603;SDS011;11469;49.024;8.246;2024-02-14T06:02:35;8.98;;;2.38;;
22603;SDS011;11469;49.024;8.246;2024-02-14T06:05:01;12.23;;;2.20;;
22603;SDS011;11469;49.024;8.246;2024-02-14T06:07:26;6.97;;;2.33;;
22603;SDS011;11469;49.024;8.246;2024-02-14T06:09:52;8.05;;;1.90;;
22603;SDS011;11469;49.024;8.246;2024-02-14T06:12:17;8.70;;;2.67;;
22603;SDS011;11469;49.024;8.246;2024-02-14T06:14:43;7.57;;;2.20;;
22603;SDS011;11469;49.024;8.246;2024-02-14T06:17:08;10.77;;;2.10;;
22603;SDS011;11469;49.024;8.246;2024-02-14T06:19:33;12.48;;;2.25;;
22603;SDS011;11469;49.024;8.246;2024-02-14T06:22:00;8.68;;;2.30;;
22603;SDS011;11469;49.024;8.246;2024-02-14T06:24:25;9.45;;;2.67;;
22603;SDS011;11469;49.024;8.246;2024-02-14T06:26:51;9.73;;;2.47;;
22603;SDS011;11469;49.024;8.246;2024-02-14T06:29:16;14.90;;;3.10;;
22603;SDS011;11469;49.024;8.246;2024-02-14T06:31:44;10.95;;;2.45;;
22603;SDS011;11469;49.024;8.246;2024-02-14T06:34:09;4.82;;;2.17;;
22603;SDS011;11469;49.024;8.246;2024-02-14T06:36:35;19.02;;;2.80;;
22603;SDS011;11469;49.024;8.246;2024-02-14T06:39:01;11.57;;;2.40;;
22603;SDS011;11469;49.024;8.246;2024-02-14T06:41:26;11.40;;;2.70;;
22603;SDS011;11469;49.024;8.246;2024-02-14T06:43:51;8.10;;;2.65;;
22603;SDS011;11469;49.024;8.246;2024-02-14T06:46:17;6.90;;;2.47;;
22603;SDS011;11469;49.024;8.246;2024-02-14T06:48:43;11.27;;;2.90;;
22603;SDS011;11469;49.024;8.246;2024-02-14T06:51:09;6.90;;;2.30;;
22603;SDS011;11469;49.024;8.246;2024-02-14T06:53:34;9.52;;;2.83;;
22603;SDS011;11469;49.024;8.246;2024-02-14T06:56:00;12.07;;;3.20;;
22603;SDS011;11469;49.024;8.246;2024-02-14T06:58:26;9.57;;;2.95;;
22603;SDS011;11469;49.024;8.246;2024-02-14T07:00:51;11.55;;;2.70;;
22603;SDS011;11469;49.024;8.246;2024-02-14T07:03:17;10.18;;;2.72;;
22603;SDS011;11469;49.024;8.246;2024-02-14T07:05:42;8.77;;;2.80;;
22603;SDS011;11469;49.024;8.246;2024-02-14T07:08:08;10.32;;;2.92;;
22603;SDS011;11469;49.024;8.246;2024-02-14T07:10:34;11.55;;;3.13;;
22603;SDS011;11469;49.024;8.246;2024-02-14T07:12:59;11.30;;;3.33;;
22603;SDS011;11469;49.024;8.246;2024-02-14T07:15:24;7.97;;;2.95;;
22603;SDS011;11469;49.024;8.246;2024-02-14T07:17:53;8.02;;;3.20;;
22603;SDS011;11469;49.024;8.246;2024-02-14T07:20:20;8.35;;;2.95;;
22603;SDS011;11469;49.024;8.246;2024-02-14T07:22:45;9.27;;;2.80;;
22603;SDS011;11469;49.024;8.246;2024-02-14T07:25:12;8.10;;;3.00;;
22603;SDS011;11469;49.024;8.246;2024-02-14T07:27:38;8.77;;;2.70;;
22603;SDS011;11469;49.024;8.246;2024-02-14T07:30:05;12.90;;;3.25;;
22603;SDS011;11469;49.024;8.246;2024-02-14T07:32:30;8.68;;;2.72;;
22603;SDS011;11469;49.024;8.246;2024-02-14T07:34:56;6.45;;;2.28;;
22603;SDS011;11469;49.024;8.246;2024-02-14T07:37:21;17.35;;;3.95;;
22603;SDS011;11469;49.024;8.246;2024-02-14T07:39:47;11.05;;;2.83;;
22603;SDS011;11469;49.024;8.246;2024-02-14T07:42:13;7.88;;;2.67;;
22603;SDS011;11469;49.024;8.246;2024-02-14T07:44:38;9.82;;;2.75;;
22603;SDS011;11469;49.024;8.246;2024-02-14T07:47:04;9.00;;;2.72;;
22603;SDS011;11469;49.024;8.246;2024-02-14T07:49:29;8.43;;;2.67;;
22603;SDS011;11469;49.024;8.246;2024-02-14T07:51:55;8.85;;;2.95;;
22603;SDS011;11469;49.024;8.246;2024-02-14T07:54:20;11.85;;;2.70;;
22603;SDS011;11469;49.024;8.246;2024-02-14T07:56:46;7.55;;;2.88;;
22603;SDS011;11469;49.024;8.246;2024-02-14T07:59:11;6.78;;;2.67;;
22603;SDS011;11469;49.024;8.246;2024-02-14T08:01:37;7.95;;;3.05;;
22603;SDS011;11469;49.024;8.246;2024-02-14T08:04:02;8.52;;;2.88;;
22603;SDS011;11469;49.024;8.246;2024-02-14T08:06:29;10.68;;;3.03;;
22603;SDS011;11469;49.024;8.246;2024-02-14T08:08:54;10.50;;;2.50;;
22603;SDS011;11469;49.024;8.246;2024-02-14T08:11:24;12.10;;;3.25;;
22603;SDS011;11469;49.024;8.246;2024-02-14T08:13:50;10.55;;;3.45;;
22603;SDS011;11469;49.024;8.246;2024-02-14T08:16:16;9.63;;;3.20;;
22603;SDS011;11469;49.024;8.246;2024-02-14T08:18:41;10.88;;;3.17;;
22603;SDS011;11469;49.024;8.246;2024-02-14T08:21:09;11.52;;;3.00;;
22603;SDS011;11469;49.024;8.246;2024-02-14T08:23:35;7.13;;;2.60;;
22603;SDS011;11469;49.024;8.246;2024-02-14T08:26:01;10.15;;;2.90;;
22603;SDS011;11469;49.024;8.246;2024-02-14T08:28:26;10.63;;;3.00;;
22603;SDS011;11469;49.024;8.246;2024-02-14T08:30:52;9.90;;;3.03;;
22603;SDS011;11469;49.024;8.246;2024-02-14T08:33:17;8.00;;;3.03;;
22603;SDS011;11469;49.024;8.246;2024-02-14T08:35:42;6.93;;;2.92;;
22603;SDS011;11469;49.024;8.246;2024-02-14T08:38:08;11.27;;;3.10;;
22603;SDS011;11469;49.024;8.246;2024-02-14T08:40:34;8.63;;;3.38;;
22603;SDS011;11469;49.024;8.246;2024-02-14T08:42:59;10.95;;;2.90;;
22603;SDS011;11469;49.024;8.246;2024-02-14T08:45:25;11.05;;;3.95;;
22603;SDS011;11469;49.024;8.246;2024-02-14T08:47:54;10.45;;;3.10;;
22603;SDS011;11469;49.024;8.246;2024-02-14T08:50:19;12.48;;;3.00;;
22603;SDS011;11469;49.024;8.246;2024-02-14T08:52:44;6.60;;;2.65;;
22603;SDS011;11469;49.024;8.246;2024-02-14T08:55:10;5.82;;;2.70;;
22603;SDS011;11469;49.024;8.246;2024-02-14T08:57:41;10.40;;;3.45;;
22603;SDS011;11469;49.024;8.246;2024-02-14T09:00:07;10.05;;;2.80;;
22603;SDS011;11469;49.024;8.246;2024-02-14T09:02:33;10.38;;;3.58;;
22603;SDS011;11469;49.024;8.246;2024-02-14T09:05:00;7.85;;;3.10;;
22603;SDS011;11469;49.024;8.246;2024-02-14T09:07:26;13.43;;;3.65;;
22603;SDS011;11469;49.024;8.246;2024-02-14T09:09:51;14.95;;;2.97;;
22603;SDS011;11469;49.024;8.246;2024-02-14T09:12:17;9.40;;;3.20;;
22603;SDS011;11469;49.024;8.246;2024-02-14T09:14:42;10.05;;;2.95;;
22603;SDS011;11469;49.024;8.246;2024-02-14T09:17:08;10.73;;;3.20;;
22603;SDS011;11469;49.024;8.246;2024-02-14T09:19:33;14.32;;;2.85;;
22603;SDS011;11469;49.024;8.246;2024-02-14T09:21:59;12.80;;;3.47;;
22603;SDS011;11469;49.024;8.246;2024-02-14T09:24:24;9.55;;;2.78;;
22603;SDS011;11469;49.024;8.246;2024-02-14T09:26:50;9.30;;;2.88;;
22603;SDS011;11469;49.024;8.246;2024-02-14T09:29:15;9.07;;;2.72;;
22603;SDS011;11469;49.024;8.246;2024-02-14T09:31:40;6.30;;;2.60;;
22603;SDS011;11469;49.024;8.246;2024-02-14T09:34:06;10.30;;;3.50;;
22603;SDS011;11469;49.024;8.246;2024-02-14T09:36:31;14.52;;;3.53;;
22603;SDS011;11469;49.024;8.246;2024-02-14T09:38:57;13.85;;;4.15;;
22603;SDS011;11469;49.024;8.246;2024-02-14T09:41:25;11.63;;;3.13;;
22603;SDS011;11469;49.024;8.246;2024-02-14T09:43:56;5.53;;;2.13;;
22603;SDS011;11469;49.024;8.246;2024-02-14T09:46:23;9.18;;;2.42;;
22603;SDS011;11469;49.024;8.246;2024-02-14T09:48:50;7.03;;;2.40;;
22603;SDS011;11469;49.024;8.246;2024-02-14T09:51:17;5.43;;;1.83;;
22603;SDS011;11469;49.024;8.246;2024-02-14T09:53:42;8.85;;;2.28;;
22603;SDS011;11469;49.024;8.246;2024-02-14T09:56:09;8.65;;;2.17;;
22603;SDS011;11469;49.024;8.246;2024-02-14T09:58:36;6.60;;;2.42;;
22603;SDS011;11469;49.024;8.246;2024-02-14T10:01:02;8.70;;;2.08;;
22603;SDS011;11469;49.024;8.246;2024-02-14T10:03:27;6.47;;;2.60;;
22603;SDS011;11469;49.024;8.246;2024-02-14T10:05:53;11.85;;;2.28;;
22603;SDS011;11469;49.024;8.246;2024-02-14T10:08:19;9.90;;;2.83;;
22603;SDS011;11469;49.024;8.246;2024-02-14T10:10:49;9.25;;;2.38;;
22603;SDS011;11469;49.024;8.246;2024-02-14T10:13:15;10.57;;;2.78;;
22603;SDS011;11469;49.024;8.246;2024-02-14T10:15:41;6.78;;;2.60;;
22603;SDS011;11469;49.024;8.246;2024-02-14T10:18:06;10.65;;;2.95;;
22603;SDS011;11469;49.024;8.246;2024-02-14T10:20:34;7.40;;;2.58;;
22603;SDS011;11469;49.024;8.246;2024-02-14T10:23:05;7.63;;;2.60;;
22603;SDS011;11469;49.024;8.246;2024-02-14T10:25:36;7.72;;;2.60;;
22603;SDS011;11469;49.024;8.246;2024-02-14T10:28:06;7.15;;;2.67;;
22603;SDS011;11469;49.024;8.246;2024-02-14T10:30:35;8.02;;;2.30;;
22603;SDS011;11469;49.024;8.246;2024-02-14T10:33:03;10.20;;;2.80;;
22603;SDS011;11469;49.024;8.246;2024-02-14T10:35:29;6.03;;;2.25;;
22603;SDS011;11469;49.024;8.246;2024-02-14T10:37:57;7.43;;;2.45;;
22603;SDS011;11469;49.024;8.246;2024-02-14T10:40:26;7.85;;;2.50;;
22603;SDS011;11469;49.024;8.246;2024-02-14T10:42:53;8.48;;;3.10;;
22603;SDS011;11469;49.024;8.246;2024-02-14T10:45:19;9.45;;;2.83;;
22603;SDS011;11469;49.024;8.246;2024-02-14T10:47:45;8.25;;;2.65;;
22603;SDS011;11469;49.024;8.246;2024-02-14T10:50:14;6.60;;;2.50;;
22603;SDS011;11469;49.024;8.246;2024-02-14T10:52:41;11.13;;;2.55;;
22603;SDS011;11469;49.024;8.246;2024-02-14T10:55:07;7.78;;;3.03;;
22603;SDS011;11469;49.024;8.246;2024-02-14T10:57:34;7.25;;;2.60;;
22603;SDS011;11469;49.024;8.246;2024-02-14T11:00:02;9.20;;;3.08;;
22603;SDS011;11469;49.024;8.246;2024-02-14T11:02:35;11.20;;;3.33;;
22603;SDS011;11469;49.024;8.246;2024-02-14T11:05:02;11.57;;;3.00;;
22603;SDS011;11469;49.024;8.246;2024-02-14T11:07:28;7.47;;;2.95;;
22603;SDS011;11469;49.024;8.246;2024-02-14T11:12:36;10.27;;;3.50;;
22603;SDS011;11469;49.024;8.246;2024-02-14T11:15:11;7.40;;;2.73;;
22603;SDS011;11469;49.024;8.246;2024-02-14T11:17:38;8.25;;;2.88;;
22603;SDS011;11469;49.024;8.246;2024-02-14T11:20:17;12.45;;;3.58;;
22603;SDS011;11469;49.024;8.246;2024-02-14T11:22:56;10.93;;;2.60;;
22603;SDS011;11469;49.024;8.246;2024-02-14T11:25:24;6.57;;;2.60;;
22603;SDS011;11469;49.024;8.246;2024-02-14T11:27:54;7.10;;;2.60;;
22603;SDS011;11469;49.024;8.246;2024-02-14T11:30:26;11.40;;;2.55;;
22603;SDS011;11469;49.024;8.246;2024-02-14T11:35:44;5.18;;;2.13;;
22603;SDS011;11469;49.024;8.246;2024-02-14T11:38:11;6.20;;;2.40;;
22603;SDS011;11469;49.024;8.246;2024-02-14T11:40:37;6.68;;;2.33;;
22603;SDS011;11469;49.024;8.246;2024-02-14T11:43:04;8.93;;;2.42;;
22603;SDS011;11469;49.024;8.246;2024-02-14T11:45:30;4.32;;;1.60;;
22603;SDS011;11469;49.024;8.246;2024-02-14T11:47:56;6.40;;;1.88;;
22603;SDS011;11469;49.024;8.246;2024-02-14T11:50:21;7.35;;;1.65;;
22603;SDS011;11469;49.024;8.246;2024-02-14T11:52:47;6.97;;;1.90;;
22603;SDS011;11469;49.024;8.246;2024-02-14T11:55:12;9.18;;;2.40;;
22603;SDS011;11469;49.024;8.246;2024-02-14T11:57:40;4.15;;;1.85;;
22603;SDS011;11469;49.024;8.246;2024-02-14T12:00:07;5.95;;;1.65;;
22603;SDS011;11469;49.024;8.246;2024-02-14T12:02:33;3.83;;;1.50;;
22603;SDS011;11469;49.024;8.246;2024-02-14T12:04:59;3.80;;;1.75;;
22603;SDS011;11469;49.024;8.246;2024-02-14T12:07:24;3.25;;;1.48;;
22603;SDS011;11469;49.024;8.246;2024-02-14T12:09:51;6.68;;;1.70;;
22603;SDS011;11469;49.024;8.246;2024-02-14T12:12:16;4.60;;;1.75;;
22603;SDS011;11469;49.024;8.246;2024-02-14T12:14:45;7.88;;;2.15;;
22603;SDS011;11469;49.024;8.246;2024-02-14T12:17:15;4.45;;;1.67;;
22603;SDS011;11469;49.024;8.246;2024-02-14T12:19:43;8.25;;;1.95;;
22603;SDS011;11469;49.024;8.246;2024-02-14T12:22:09;7.25;;;2.10;;
22603;SDS011;11469;49.024;8.246;2024-02-14T12:24:42;1.98;;;1.20;;
22603;SDS011;11469;49.024;8.246;2024-02-14T12:27:12;4.13;;;1.65;;
22603;SDS011;11469;49.024;8.246;2024-02-14T12:29:37;4.75;;;1.27;;
22603;SDS011;11469;49.024;8.246;2024-02-14T12:32:06;4.13;;;1.33;;
22603;SDS011;11469;49.024;8.246;2024-02-14T12:34:32;5.20;;;1.02;;
22603;SDS011;11469;49.024;8.246;2024-02-14T12:36:58;2.60;;;1.17;;
22603;SDS011;11469;49.024;8.246;2024-02-14T12:39:24;2.67;;;1.23;;
22603;SDS011;11469;49.024;8.246;2024-02-14T12:41:51;4.97;;;1.38;;
22603;SDS011;11469;49.024;8.246;2024-02-14T12:44:17;3.83;;;1.40;;
22603;SDS011;11469;49.024;8.246;2024-02-14T12:46:43;3.80;;;1.15;;
22603;SDS011;11469;49.024;8.246;2024-02-14T12:49:08;4.53;;;1.40;;
22603;SDS011;11469;49.024;8.246;2024-02-14T12:51:34;5.10;;;1.27;;
22603;SDS011;11469;49.024;8.246;2024-02-14T12:54:01;5.30;;;1.27;;
22603;SDS011;11469;49.024;8.246;2024-02-14T12:56:26;3.50;;;1.13;;
22603;SDS011;11469;49.024;8.246;2024-02-14T12:58:52;5.72;;;1.25;;
22603;SDS011;11469;49.024;8.246;2024-02-14T13:01:18;3.17;;;1.35;;
22603;SDS011;11469;49.024;8.246;2024-02-14T13:03:44;4.75;;;1.52;;
22603;SDS011;11469;49.024;8.246;2024-02-14T13:06:10;3.03;;;1.17;;
22603;SDS011;11469;49.024;8.246;2024-02-14T13:08:36;3.83;;;1.00;;
22603;SDS011;11469;49.024;8.246;2024-02-14T13:11:03;3.38;;;1.30;;
22603;SDS011;11469;49.024;8.246;2024-02-14T13:13:29;9.40;;;1.52;;
22603;SDS011;11469;49.024;8.246;2024-02-14T13:15:54;2.80;;;1.10;;
22603;SDS011;11469;49.024;8.246;2024-02-14T13:18:20;6.43;;;1.67;;
22603;SDS011;11469;49.024;8.246;2024-02-14T13:20:45;3.60;;;1.00;;
22603;SDS011;11469;49.024;8.246;2024-02-14T13:23:11;11.63;;;1.30;;
22603;SDS011;11469;49.024;8.246;2024-02-14T13:25:36;5.57;;;1.05;;
22603;SDS011;11469;49.024;8.246;2024-02-14T13:28:02;4.68;;;0.93;;
22603;SDS011;11469;49.024;8.246;2024-02-14T13:30:29;3.25;;;0.98;;
22603;SDS011;11469;49.024;8.246;2024-02-14T13:32:55;3.22;;;1.13;;
22603;SDS011;11469;49.024;8.246;2024-02-14T13:35:21;7.93;;;1.48;;
22603;SDS011;11469;49.024;8.246;2024-02-14T13:37:46;2.97;;;1.38;;
22603;SDS011;11469;49.024;8.246;2024-02-14T13:40:12;3.95;;;1.20;;
22603;SDS011;11469;49.024;8.246;2024-02-14T13:42:38;2.15;;;1.20;;
22603;SDS011;11469;49.024;8.246;2024-02-14T13:45:07;3.67;;;1.30;;
22603;SDS011;11469;49.024;8.246;2024-02-14T13:47:36;7.47;;;1.50;;
22603;SDS011;11469;49.024;8.246;2024-02-14T13:50:07;2.20;;;0.75;;
22603;SDS011;11469;49.024;8.246;2024-02-14T13:52:33;5.25;;;1.40;;
22603;SDS011;11469;49.024;8.246;2024-02-14T13:54:59;2.92;;;1.50;;
22603;SDS011;11469;49.024;8.246;2024-02-14T13:57:27;5.25;;;1.50;;
22603;SDS011;11469;49.024;8.246;2024-02-14T13:59:53;4.78;;;1.17;;
22603;SDS011;11469;49.024;8.246;2024-02-14T14:02:19;3.47;;;1.20;;
22603;SDS011;11469;49.024;8.246;2024-02-14T14:04:44;8.95;;;1.60;;
22603;SDS011;11469;49.024;8.246;2024-02-14T14:07:09;2.88;;;0.85;;
22603;SDS011;11469;49.024;8.246;2024-02-14T14:09:35;5.75;;;1.10;;
22603;SDS011;11469;49.024;8.246;2024-02-14T14:12:01;3.08;;;1.27;;
22603;SDS011;11469;49.024;8.246;2024-02-14T14:14:26;3.17;;;1.67;;
22603;SDS011;11469;49.024;8.246;2024-02-14T14:16:54;2.45;;;1.30;;
22603;SDS011;11469;49.024;8.246;2024-02-14T14:19:20;3.22;;;1.20;;
22603;SDS011;11469;49.024;8.246;2024-02-14T14:21:45;4.05;;;1.65;;
22603;SDS011;11469;49.024;8.246;2024-02-14T14:24:11;2.47;;;1.35;;
22603;SDS011;11469;49.024;8.246;2024-02-14T14:26:36;2.95;;;1.50;;
22603;SDS011;11469;49.024;8.246;2024-02-14T14:29:02;4.40;;;1.40;;
22603;SDS011;11469;49.024;8.246;2024-02-14T14:31:28;3.67;;;1.50;;
22603;SDS011;11469;49.024;8.246;2024-02-14T14:33:56;5.25;;;1.20;;
22603;SDS011;11469;49.024;8.246;2024-02-14T14:36:22;4.97;;;1.60;;
22603;SDS011;11469;49.024;8.246;2024-02-14T14:38:47;2.90;;;1.58;;
22603;SDS011;11469;49.024;8.246;2024-02-14T14:41:12;3.47;;;1.30;;